Terminal Aerodrome Forecast
Issued by NWS

Home | Current Version | Previous Version | Text Only | Print | Product List | Glossary On
Versions: 1 2 3 4 5 6 7 8 9 10 11 12 13 14
000
FTUS44 KMAF 301100
TAFINK
TAF
KINK 301120Z 3012/3112 34007KT P6SM SKC
      TEMPO 3012/3015 3SM BR
     FM310000 03011KT P6SM FEW200
      TEMPO 3107/3111 OVC028=

USA.gov is the U.S. government's official web portal to all federal, state and local government web resources and services.